createdAt,value
2022-12-06T00:02:28.610Z,29.40
2022-12-06T00:07:33.190Z,27.70
2022-12-06T00:12:36.431Z,26.90
2022-12-06T00:17:42.976Z,29.80
2022-12-06T00:22:46.229Z,27.70
2022-12-06T00:27:50.670Z,28.80
2022-12-06T00:32:53.676Z,27.30
2022-12-06T00:37:57.091Z,31.50
2022-12-06T00:43:00.098Z,30.40
2022-12-06T00:48:03.100Z,37.40
2022-12-06T00:53:06.038Z,30.30
2022-12-06T00:58:09.020Z,32.10
2022-12-06T01:03:12.496Z,34.70
2022-12-06T01:08:17.661Z,36.70
2022-12-06T01:13:21.713Z,33.60
2022-12-06T01:18:24.726Z,36.60
2022-12-06T01:23:27.643Z,35.40
2022-12-06T01:28:31.045Z,36.60
2022-12-06T01:33:34.154Z,31.40
2022-12-06T01:38:37.059Z,37.40
2022-12-06T01:43:42.744Z,35.80
2022-12-06T01:48:47.577Z,34.10
2022-12-06T01:53:53.654Z,33.80
2022-12-06T01:58:58.770Z,34.80
2022-12-06T02:04:02.175Z,34.70
2022-12-06T02:09:07.384Z,32.50
2022-12-06T02:14:15.743Z,36.30
2022-12-06T02:19:31.016Z,36.50
2022-12-06T02:25:11.906Z,37.80
2022-12-06T02:30:34.726Z,35.20
2022-12-06T02:35:43.414Z,38.00
2022-12-06T02:40:53.642Z,34.80
2022-12-06T02:45:59.394Z,27.90
2022-12-06T02:51:08.284Z,37.40
2022-12-06T02:56:13.738Z,33.00
2022-12-06T03:01:30.332Z,37.80
2022-12-06T03:06:52.042Z,35.30
2022-12-06T03:12:08.870Z,34.70
2022-12-06T03:17:34.102Z,34.70
2022-12-06T03:22:42.076Z,32.40
2022-12-06T03:27:46.976Z,32.20
2022-12-06T03:32:51.537Z,37.30
2022-12-06T03:38:19.614Z,35.60
2022-12-06T03:43:23.282Z,36.50
2022-12-06T03:48:49.129Z,36.10
2022-12-06T03:53:58.720Z,30.80
2022-12-06T03:59:01.950Z,38.80
2022-12-06T04:04:05.750Z,36.40
2022-12-06T04:09:27.417Z,34.50
2022-12-06T04:14:39.438Z,38.00
2022-12-06T04:19:42.444Z,34.50
2022-12-06T04:24:45.447Z,36.70
2022-12-06T04:30:07.092Z,35.90
2022-12-06T04:35:28.523Z,41.30
2022-12-06T04:40:31.427Z,36.50
2022-12-06T04:45:34.333Z,36.30
2022-12-06T04:50:37.440Z,38.80
2022-12-06T04:55:40.346Z,37.90
2022-12-06T05:00:47.883Z,31.50
2022-12-06T05:05:50.864Z,38.80
2022-12-06T05:10:53.873Z,37.30
2022-12-06T05:16:00.067Z,37.80
2022-12-06T05:21:05.908Z,32.20
2022-12-06T05:26:13.137Z,39.00
2022-12-06T05:31:16.948Z,34.60
2022-12-06T05:36:25.670Z,34.90
2022-12-06T05:41:28.704Z,38.00
2022-12-06T05:46:31.807Z,38.10
2022-12-06T05:51:34.934Z,38.80
2022-12-06T05:56:40.075Z,37.50
2022-12-06T06:01:43.448Z,38.80
2022-12-06T06:06:46.599Z,37.90
2022-12-06T06:11:49.606Z,37.30
2022-12-06T06:16:52.569Z,35.20
2022-12-06T06:21:55.618Z,32.40
2022-12-06T06:26:58.624Z,35.90
2022-12-06T06:32:01.765Z,44.70
2022-12-06T06:37:04.944Z,40.60
2022-12-06T06:42:08.255Z,36.70
2022-12-06T06:47:11.264Z,47.90
2022-12-06T06:52:14.731Z,79.60
2022-12-06T06:57:18.606Z,55.70
2022-12-06T07:02:21.584Z,70.70
2022-12-06T07:07:25.134Z,53.50
2022-12-06T07:12:28.144Z,55.00
2022-12-06T07:17:31.249Z,58.10
2022-12-06T07:22:34.256Z,42.20
2022-12-06T07:27:37.677Z,61.30
2022-12-06T07:32:40.676Z,71.20
2022-12-06T07:37:45.422Z,71.80
2022-12-06T07:43:07.172Z,55.20
2022-12-06T07:48:11.615Z,71.00
2022-12-06T07:53:14.922Z,44.70
2022-12-06T07:58:18.033Z,72.50
2022-12-06T08:03:21.245Z,43.20
2022-12-06T08:08:28.545Z,36.10
2022-12-06T08:13:34.014Z,38.20
2022-12-06T08:18:37.735Z,37.70
2022-12-06T08:23:40.747Z,42.20
2022-12-06T08:28:43.855Z,62.90
2022-12-06T08:33:47.608Z,37.20
2022-12-06T08:38:52.533Z,52.20
2022-12-06T08:43:56.145Z,43.00
2022-12-06T08:48:59.359Z,39.30
2022-12-06T08:54:03.671Z,39.90
2022-12-06T08:59:07.574Z,36.60
2022-12-06T09:04:11.718Z,37.00
2022-12-06T09:09:16.526Z,42.20
2022-12-06T09:14:21.807Z,64.80
2022-12-06T09:19:25.381Z,52.70
2022-12-06T09:24:28.490Z,56.00
2022-12-06T09:29:33.819Z,39.90
2022-12-06T09:34:40.340Z,39.20
2022-12-06T09:39:48.981Z,44.10
2022-12-06T09:45:16.980Z,39.90
2022-12-06T09:50:49.059Z,39.50
2022-12-06T09:56:15.610Z,34.30
2022-12-06T10:01:32.387Z,34.40
2022-12-06T10:06:44.897Z,36.20
2022-12-06T10:12:03.262Z,36.30
2022-12-06T10:17:09.730Z,40.80
2022-12-06T10:22:41.824Z,50.00
2022-12-06T10:27:48.005Z,36.10
2022-12-06T10:32:57.754Z,34.10
2022-12-06T10:38:06.610Z,36.10
2022-12-06T10:43:23.957Z,39.30
2022-12-06T10:48:43.647Z,36.40
2022-12-06T10:54:22.495Z,39.30
2022-12-06T10:59:51.920Z,39.60
2022-12-06T11:05:02.300Z,39.90
2022-12-06T11:15:25.515Z,38.20
2022-12-06T11:20:35.798Z,37.90
2022-12-06T11:31:11.661Z,34.50
2022-12-06T11:36:15.328Z,39.50
2022-12-06T11:41:24.272Z,40.30
2022-12-06T11:46:27.668Z,38.10
2022-12-06T11:51:30.796Z,36.10
2022-12-06T11:56:39.143Z,39.20
2022-12-06T12:01:49.134Z,39.20
2022-12-06T12:07:10.641Z,40.20
2022-12-06T12:12:18.254Z,37.70
2022-12-06T12:17:25.462Z,36.70
2022-12-06T12:22:38.401Z,42.40
2022-12-06T12:27:41.412Z,42.60
2022-12-06T12:32:46.671Z,38.80
2022-12-06T12:37:52.704Z,42.40
2022-12-06T12:43:01.380Z,36.10
2022-12-06T12:48:22.474Z,39.50
2022-12-06T12:53:33.504Z,49.10
2022-12-06T12:58:37.126Z,43.50
2022-12-06T13:03:51.234Z,44.20
2022-12-06T13:09:00.964Z,41.40
2022-12-06T13:14:05.094Z,39.40
2022-12-06T13:19:16.812Z,42.80
2022-12-06T13:24:27.742Z,36.90
2022-12-06T13:30:07.270Z,42.00
2022-12-06T13:35:37.604Z,37.30
2022-12-06T13:40:48.808Z,35.80
2022-12-06T13:45:52.980Z,38.50
2022-12-06T13:51:11.161Z,45.00
2022-12-06T13:56:37.346Z,40.90
2022-12-06T14:01:50.380Z,45.00
2022-12-06T14:06:57.495Z,43.10
2022-12-06T14:12:01.114Z,42.20
2022-12-06T14:17:11.511Z,42.60
2022-12-06T14:27:21.038Z,40.70
2022-12-06T14:32:35.970Z,40.20
2022-12-06T14:37:39.675Z,42.20
2022-12-06T14:43:01.848Z,43.60
2022-12-06T14:48:05.272Z,41.50
2022-12-06T14:53:13.601Z,43.30
2022-12-06T14:58:20.808Z,45.80
2022-12-06T15:03:33.460Z,65.60
2022-12-06T15:08:38.915Z,54.30
2022-12-06T15:13:41.905Z,52.00
2022-12-06T15:18:59.357Z,57.20
2022-12-06T15:24:02.467Z,48.30
2022-12-06T15:29:05.575Z,46.20
2022-12-06T15:34:25.986Z,45.20
2022-12-06T15:39:29.368Z,42.80
2022-12-06T15:44:32.410Z,35.00
2022-12-06T15:49:36.234Z,34.90
2022-12-06T15:54:39.344Z,41.60
2022-12-06T15:59:42.450Z,40.90
2022-12-06T16:04:48.496Z,40.60
2022-12-06T16:09:51.530Z,41.90
2022-12-06T16:14:54.537Z,36.50
2022-12-06T16:20:16.188Z,37.80
2022-12-06T16:25:19.393Z,39.10
2022-12-06T16:30:34.102Z,39.20
2022-12-06T16:35:37.091Z,38.40
2022-12-06T16:40:40.754Z,34.30
2022-12-06T16:45:45.855Z,32.40
2022-12-06T16:50:49.068Z,33.70
2022-12-06T16:55:52.175Z,37.70
2022-12-06T17:00:55.734Z,36.90
2022-12-06T17:05:58.782Z,35.00
2022-12-06T17:11:21.847Z,33.70
2022-12-06T17:16:24.962Z,37.30
2022-12-06T17:21:28.303Z,36.10
2022-12-06T17:26:32.983Z,26.90
2022-12-06T17:31:38.298Z,29.20
2022-12-06T17:36:42.233Z,34.90
2022-12-06T17:42:04.204Z,35.60
2022-12-06T17:47:07.702Z,34.10
2022-12-06T17:52:14.007Z,34.00
2022-12-06T17:57:18.666Z,31.10
2022-12-06T18:02:26.099Z,34.30
2022-12-06T18:07:29.464Z,29.80
2022-12-06T18:12:34.962Z,31.60
2022-12-06T18:17:38.139Z,30.80
2022-12-06T18:22:41.244Z,30.10
2022-12-06T18:27:44.455Z,29.50
2022-12-06T18:32:47.574Z,26.40
2022-12-06T18:37:50.679Z,28.30
2022-12-06T18:42:53.780Z,29.70
2022-12-06T18:47:56.993Z,28.70
2022-12-06T18:53:01.738Z,24.40
2022-12-06T18:58:04.949Z,24.70
2022-12-06T19:03:08.060Z,22.80
2022-12-06T19:08:11.333Z,24.40
2022-12-06T19:13:14.624Z,22.50
2022-12-06T19:18:17.898Z,26.00
2022-12-06T19:23:22.541Z,26.00
2022-12-06T19:28:25.552Z,23.50
2022-12-06T19:33:30.510Z,25.30
2022-12-06T19:38:34.546Z,21.90
2022-12-06T19:43:56.391Z,23.70
2022-12-06T19:49:05.534Z,23.50
2022-12-06T19:54:10.515Z,21.50
2022-12-06T19:59:13.895Z,21.60
2022-12-06T20:04:22.723Z,22.60
2022-12-06T20:09:28.725Z,25.50
2022-12-06T20:14:48.895Z,21.20
2022-12-06T20:19:52.041Z,21.20
2022-12-06T20:24:55.149Z,19.80
2022-12-06T20:29:58.286Z,20.10
2022-12-06T20:35:01.593Z,20.20
2022-12-06T20:40:05.567Z,18.80
2022-12-06T20:45:09.222Z,16.90
2022-12-06T20:50:12.535Z,17.90
2022-12-06T20:55:15.646Z,22.20
2022-12-06T21:00:19.449Z,26.00
2022-12-06T21:05:22.479Z,23.50
2022-12-06T21:10:25.595Z,18.60
2022-12-06T21:15:29.504Z,22.80
2022-12-06T21:20:38.095Z,20.30
2022-12-06T21:25:41.156Z,19.50
2022-12-06T21:30:50.501Z,19.10
2022-12-06T21:35:54.034Z,20.00
2022-12-06T21:41:01.568Z,16.90
2022-12-06T21:46:12.866Z,19.50
2022-12-06T21:51:16.972Z,18.40
2022-12-06T21:56:23.358Z,28.60
2022-12-06T22:01:28.561Z,35.10
2022-12-06T22:06:32.630Z,37.80
2022-12-06T22:11:36.356Z,28.60
2022-12-06T22:16:39.438Z,24.70
2022-12-06T22:21:42.490Z,22.10
2022-12-06T22:26:45.494Z,21.30
2022-12-06T22:31:48.538Z,20.80
2022-12-06T22:36:51.820Z,20.40
2022-12-06T22:41:55.543Z,19.70
2022-12-06T22:46:58.881Z,22.30
2022-12-06T22:52:01.961Z,25.40
2022-12-06T22:57:04.861Z,25.40
2022-12-06T23:02:07.904Z,25.10
2022-12-06T23:07:11.291Z,24.00
2022-12-06T23:12:14.190Z,24.80
2022-12-06T23:17:17.200Z,24.70
2022-12-06T23:22:20.123Z,25.90
2022-12-06T23:27:23.211Z,26.00
2022-12-06T23:32:26.430Z,24.10
2022-12-06T23:37:29.424Z,26.30
2022-12-06T23:42:32.534Z,27.20
2022-12-06T23:47:35.540Z,23.30
2022-12-06T23:52:38.564Z,26.90
2022-12-06T23:57:41.658Z,28.50
